Time;durP1;ratioP1;P1;durP2;ratioP2;P2;SDS_P1;SDS_P2;PMS_P1;PMS_P2;Temp;Humidity;BMP_temperature;BMP_pressure;BME280_temperature;BME280_humidity;BME280_pressure;Samples;Min_cycle;Max_cycle;Signal;HPM_P1;HPM_P2
2023/11/04 00:00:19;;;;;;;3.05;1.55;;;;;;;6.97;82.16;98245.00;5045167;28;20069;-78
2023/11/04 00:02:46;;;;;;;1.58;0.88;;;;;;;6.93;82.23;98242.47;5034081;28;20065;-78
2023/11/04 00:05:12;;;;;;;4.72;1.40;;;;;;;6.93;82.92;98250.28;5038163;28;20051;-77
2023/11/04 00:07:40;;;;;;;7.95;0.90;;;;;;;6.90;82.47;98246.94;5024562;28;20128;-79
2023/11/04 00:10:08;;;;;;;1.30;0.60;;;;;;;6.88;82.88;98249.59;5041573;28;20111;-80
2023/11/04 00:12:36;;;;;;;3.67;0.85;;;;;;;6.88;83.25;98246.13;5036609;28;20495;-78
2023/11/04 00:15:04;;;;;;;4.65;1.38;;;;;;;6.89;82.93;98240.03;5028075;28;20045;-78
2023/11/04 00:17:30;;;;;;;5.97;0.98;;;;;;;6.88;83.60;98236.59;5040909;28;20049;-77
2023/11/04 00:19:57;;;;;;;4.80;1.50;;;;;;;6.86;83.25;98234.94;5021972;28;20128;-79
2023/11/04 00:22:24;;;;;;;2.15;0.68;;;;;;;6.87;83.49;98237.50;5027938;28;20125;-79
2023/11/04 00:24:53;;;;;;;10.65;2.60;;;;;;;6.88;83.13;98240.94;5011360;28;20457;-81
2023/11/04 00:27:20;;;;;;;6.40;1.30;;;;;;;6.90;82.93;98245.19;5037977;28;20049;-77
2023/11/04 00:29:48;;;;;;;5.15;1.45;;;;;;;6.89;83.11;98245.25;5024733;28;20061;-78
2023/11/04 00:32:15;;;;;;;7.78;1.40;;;;;;;6.91;82.69;98244.28;5042070;28;20045;-79
2023/11/04 00:34:43;;;;;;;2.88;1.25;;;;;;;6.90;82.76;98239.16;5012379;28;20095;-79
2023/11/04 00:37:10;;;;;;;5.00;0.80;;;;;;;6.90;83.12;98244.34;5009383;28;20049;-78
2023/11/04 00:39:38;;;;;;;2.88;1.55;;;;;;;6.87;82.87;98244.44;5038710;28;20049;-78
2023/11/04 00:42:05;;;;;;;3.97;0.98;;;;;;;6.84;82.89;98247.13;5023417;28;20046;-78
2023/11/04 00:44:31;;;;;;;6.93;1.63;;;;;;;6.84;82.93;98250.56;5021929;28;20057;-81
2023/11/04 00:46:59;;;;;;;8.35;1.30;;;;;;;6.80;83.21;98256.78;5038941;28;20142;-80
2023/11/04 00:49:26;;;;;;;3.47;1.52;;;;;;;6.77;83.60;98244.72;5021615;28;20136;-81
2023/11/04 00:51:52;;;;;;;2.88;0.95;;;;;;;6.79;83.52;98240.34;5018158;28;20045;-82
2023/11/04 00:54:22;;;;;;;6.68;1.25;;;;;;;6.78;84.03;98243.00;5045347;28;20053;-78
2023/11/04 00:56:49;;;;;;;2.75;1.50;;;;;;;6.72;84.18;98246.63;5034007;28;20450;-80
2023/11/04 00:59:15;;;;;;;8.98;1.35;;;;;;;6.69;84.42;98243.25;5007820;28;20141;-79
2023/11/04 01:01:42;;;;;;;5.20;0.93;;;;;;;6.66;84.08;98251.16;5026622;28;20041;-82
2023/11/04 01:04:09;;;;;;;3.00;1.13;;;;;;;6.62;84.47;98243.47;5029342;28;20037;-81
2023/11/04 01:06:35;;;;;;;7.45;0.88;;;;;;;6.72;84.67;98246.63;5022642;28;20046;-82
2023/11/04 01:09:02;;;;;;;1.67;0.82;;;;;;;6.65;84.43;98239.94;5039752;28;20161;-78
2023/11/04 01:11:29;;;;;;;3.45;1.02;;;;;;;6.59;84.92;98243.56;5026930;28;20106;-81
2023/11/04 01:13:56;;;;;;;8.88;2.03;;;;;;;6.59;84.36;98237.53;5022873;28;20496;-77
2023/11/04 01:16:22;;;;;;;1.70;1.10;;;;;;;6.59;85.09;98240.97;5036157;28;20047;-78
2023/11/04 01:18:49;;;;;;;5.63;0.65;;;;;;;6.56;84.89;98238.47;5027248;28;20514;-77
2023/11/04 01:21:16;;;;;;;5.03;2.25;;;;;;;6.59;84.96;98234.94;5005890;28;20089;-78
2023/11/04 01:23:48;;;;;;;3.83;0.82;;;;;;;6.64;84.74;98232.19;5039168;28;20040;-78
2023/11/04 01:26:14;;;;;;;6.90;1.95;;;;;;;6.66;84.30;98236.41;5026247;28;20052;-80
2023/11/04 01:28:41;;;;;;;7.25;1.33;;;;;;;6.59;84.57;98232.31;5027257;28;20436;-83
2023/11/04 01:31:08;;;;;;;7.60;1.17;;;;;;;6.54;84.97;98229.03;5043579;28;20044;-78
2023/11/04 01:33:34;;;;;;;3.17;0.68;;;;;;;6.50;85.40;98219.63;5027652;28;20053;-77
2023/11/04 01:36:01;;;;;;;1.50;0.85;;;;;;;6.46;85.66;98222.28;5040435;28;20053;-78
2023/11/04 01:38:27;;;;;;;2.58;0.95;;;;;;;6.43;85.79;98218.97;5029542;28;20121;-79
2023/11/04 01:40:55;;;;;;;4.90;0.98;;;;;;;6.38;85.93;98210.47;5008558;28;20045;-78
2023/11/04 01:43:26;;;;;;;9.35;1.42;;;;;;;6.41;86.07;98219.03;5008658;28;20033;-79
2023/11/04 01:46:17;;;;;;;3.58;1.20;;;;;;;6.36;86.06;98205.31;5004558;28;20484;-86
2023/11/04 01:48:44;;;;;;;4.75;1.77;;;;;;;6.32;86.90;98206.28;5021123;28;20680;-82
2023/11/04 01:51:14;;;;;;;5.35;1.92;;;;;;;6.29;87.22;98211.59;5039495;28;20461;-78
2023/11/04 01:53:47;;;;;;;5.60;1.10;;;;;;;6.27;86.99;98200.38;5024306;28;20045;-84
2023/11/04 01:56:21;;;;;;;3.83;1.05;;;;;;;6.23;87.80;98207.44;5018164;28;20054;-78
2023/11/04 01:58:48;;;;;;;3.70;1.42;;;;;;;6.19;88.01;98195.47;5030350;28;20519;-82
2023/11/04 02:01:15;;;;;;;8.45;1.52;;;;;;;6.15;88.70;98199.00;5033094;28;20038;-78
2023/11/04 02:03:42;;;;;;;5.20;1.25;;;;;;;6.14;88.64;98189.56;5035044;28;21468;-78
2023/11/04 02:06:08;;;;;;;3.65;0.95;;;;;;;6.11;88.64;98192.22;5024945;28;20124;-79
2023/11/04 02:08:36;;;;;;;4.32;1.45;;;;;;;6.04;89.09;98186.38;5025382;28;20059;-78
2023/11/04 02:11:05;;;;;;;2.28;1.05;;;;;;;6.03;89.31;98178.63;5004989;28;20160;-77
2023/11/04 02:13:32;;;;;;;13.35;2.10;;;;;;;6.01;89.46;98185.59;5018739;28;20136;-78
2023/11/04 02:15:59;;;;;;;3.45;0.68;;;;;;;5.97;89.72;98183.06;5034619;28;20116;-80
2023/11/04 02:18:27;;;;;;;5.40;1.00;;;;;;;5.96;90.06;98194.34;5027902;28;20049;-80
2023/11/04 02:21:00;;;;;;;7.85;1.25;;;;;;;5.95;89.90;98186.63;5028201;28;20693;-86
2023/11/04 02:23:28;;;;;;;1.73;0.47;;;;;;;5.92;90.61;98184.97;5028614;28;20481;-79
2023/11/04 02:25:54;;;;;;;4.85;0.60;;;;;;;5.91;90.70;98183.25;5046427;28;20049;-86
2023/11/04 02:28:22;;;;;;;4.30;2.63;;;;;;;5.91;91.29;98178.06;5047024;28;20204;-78
2023/11/04 02:30:49;;;;;;;2.03;0.85;;;;;;;5.93;91.10;98181.47;5049606;28;20467;-81
2023/11/04 02:33:16;;;;;;;6.80;1.50;;;;;;;5.95;91.21;98181.41;5026720;28;20048;-80
2023/11/04 02:35:44;;;;;;;10.23;1.77;;;;;;;5.96;91.19;98180.53;5020409;28;20098;-78
2023/11/04 02:38:11;;;;;;;3.20;0.90;;;;;;;5.97;91.10;98183.06;5046507;28;20614;-76
2023/11/04 02:40:40;;;;;;;4.45;0.85;;;;;;;5.94;91.23;98179.72;5026125;28;20046;-76
2023/11/04 02:43:10;;;;;;;8.77;1.27;;;;;;;5.92;91.73;98179.75;5031999;28;20053;-76
2023/11/04 02:45:39;;;;;;;3.67;0.90;;;;;;;5.92;91.78;98174.56;5022534;28;20079;-77
2023/11/04 02:48:06;;;;;;;8.63;1.30;;;;;;;5.90;91.56;98183.31;5027070;28;20037;-77
2023/11/04 02:50:33;;;;;;;2.80;0.80;;;;;;;5.89;92.22;98173.81;5025058;28;20177;-82
2023/11/04 02:53:00;;;;;;;4.30;1.48;;;;;;;5.89;92.60;98173.81;5030557;28;20049;-80
2023/11/04 02:55:26;;;;;;;2.88;0.73;;;;;;;5.86;92.69;98173.91;5036863;28;20038;-76
2023/11/04 02:57:53;;;;;;;8.27;1.27;;;;;;;5.82;92.92;98173.13;5033984;28;20049;-81
2023/11/04 03:00:19;;;;;;;1.83;0.60;;;;;;;5.79;93.31;98174.09;5026892;28;20099;-77
2023/11/04 03:02:46;;;;;;;3.65;0.38;;;;;;;5.75;93.64;98167.28;5026350;28;20051;-77
2023/11/04 03:05:12;;;;;;;5.82;1.35;;;;;;;5.77;94.40;98167.22;5054355;28;20141;-77
2023/11/04 03:07:41;;;;;;;4.07;0.85;;;;;;;5.81;93.37;98166.25;5026060;28;20129;-77
2023/11/04 03:10:09;;;;;;;2.63;0.70;;;;;;;5.78;93.17;98166.34;5045255;28;20107;-80
2023/11/04 03:12:35;;;;;;;6.70;0.73;;;;;;;5.80;93.64;98167.13;5029072;28;20655;-79
2023/11/04 03:15:02;;;;;;;6.45;1.63;;;;;;;5.87;92.61;98166.06;5006278;28;20137;-78
2023/11/04 03:17:29;;;;;;;3.17;1.15;;;;;;;5.90;92.16;98160.78;5026930;28;20045;-79
2023/11/04 03:19:56;;;;;;;5.80;0.43;;;;;;;5.93;91.67;98165.03;5021492;28;20045;-78
2023/11/04 03:22:22;;;;;;;1.63;0.47;;;;;;;6.01;91.43;98163.09;5026308;28;20045;-78
2023/11/04 03:24:49;;;;;;;1.95;1.30;;;;;;;6.09;90.40;98165.47;5047297;28;20148;-77
2023/11/04 03:27:15;;;;;;;3.08;1.17;;;;;;;6.22;89.56;98155.50;5026132;28;20122;-77
2023/11/04 03:29:42;;;;;;;3.03;0.55;;;;;;;6.21;89.46;98156.44;5025194;28;20041;-78
2023/11/04 03:32:09;;;;;;;0.88;0.55;;;;;;;6.30;88.96;98150.94;5028407;28;20128;-78
2023/11/04 03:34:36;;;;;;;5.07;0.50;;;;;;;6.44;87.60;98156.53;5011987;28;20490;-78
2023/11/04 03:37:03;;;;;;;2.08;0.43;;;;;;;6.49;87.37;98153.78;5037820;28;20091;-84
2023/11/04 03:39:32;;;;;;;0.75;0.60;;;;;;;6.49;87.53;98143.38;5028136;28;20102;-78
2023/11/04 03:42:00;;;;;;;2.63;0.75;;;;;;;6.41;87.54;98146.25;5032821;28;20077;-80
2023/11/04 03:44:26;;;;;;;0.70;0.30;;;;;;;6.40;87.87;98135.88;5022801;28;20041;-79
2023/11/04 03:46:58;;;;;;;1.15;0.40;;;;;;;6.33;88.79;98137.00;5042923;28;20048;-77
2023/11/04 03:49:25;;;;;;;1.73;0.60;;;;;;;6.30;88.95;98137.94;5033955;28;20041;-80
2023/11/04 03:51:52;;;;;;;3.92;0.52;;;;;;;6.23;89.75;98134.72;5026119;28;20591;-78
2023/11/04 03:54:19;;;;;;;6.07;1.13;;;;;;;6.16;90.07;98138.38;5008166;28;20148;-78
2023/11/04 03:56:45;;;;;;;1.25;0.57;;;;;;;6.09;91.05;98137.72;5028457;28;20123;-79
2023/11/04 03:59:12;;;;;;;0.90;0.55;;;;;;;6.05;91.21;98135.25;5023381;28;20033;-78
2023/11/04 04:01:41;;;;;;;3.88;0.45;;;;;;;6.05;91.96;98136.13;5023997;28;20071;-81
2023/11/04 04:04:08;;;;;;;3.17;0.88;;;;;;;6.02;92.10;98138.81;5030402;28;20053;-78
2023/11/04 04:06:44;;;;;;;2.28;0.60;;;;;;;6.01;91.81;98137.13;5020677;28;20561;-80
2023/11/04 04:09:11;;;;;;;0.73;0.45;;;;;;;6.00;92.23;98124.16;5039409;28;20049;-79
2023/11/04 04:11:37;;;;;;;1.17;0.35;;;;;;;5.95;92.70;98132.09;5020592;28;20059;-78
2023/11/04 04:14:04;;;;;;;4.95;0.75;;;;;;;5.97;92.68;98131.13;5027234;28;20115;-78
2023/11/04 04:16:33;;;;;;;5.90;1.15;;;;;;;5.99;93.07;98130.28;5024737;28;20063;-79
2023/11/04 04:18:59;;;;;;;3.95;0.68;;;;;;;5.97;92.66;98122.47;5026695;28;20046;-82
2023/11/04 04:21:26;;;;;;;1.10;0.50;;;;;;;5.96;93.18;98124.25;5028031;28;20530;-77
2023/11/04 04:23:53;;;;;;;1.10;0.73;;;;;;;5.91;93.29;98118.34;5027654;28;20132;-80
2023/11/04 04:26:21;;;;;;;3.13;1.02;;;;;;;5.87;93.74;98110.72;5045330;28;20103;-77
2023/11/04 04:28:48;;;;;;;2.72;0.57;;;;;;;5.91;94.19;98125.28;5031013;28;20060;-80
2023/11/04 04:31:15;;;;;;;2.85;1.10;;;;;;;5.92;93.91;98108.81;5006772;28;20049;-81
2023/11/04 04:33:42;;;;;;;4.85;1.00;;;;;;;5.89;93.32;98114.97;5025565;28;20507;-81
2023/11/04 04:36:09;;;;;;;1.25;0.65;;;;;;;5.90;94.04;98110.59;5042261;28;20120;-78
2023/11/04 04:38:37;;;;;;;1.08;0.40;;;;;;;5.86;93.76;98103.81;5023811;28;20477;-79
2023/11/04 04:41:05;;;;;;;1.00;1.00;;;;;;;5.89;93.90;98103.69;5020240;28;20057;-77
2023/11/04 04:43:32;;;;;;;1.73;0.68;;;;;;;5.84;93.87;98111.66;5045404;28;20140;-78
2023/11/04 04:46:00;;;;;;;2.83;0.68;;;;;;;5.82;94.84;98110.84;5030806;28;20112;-83
2023/11/04 04:48:27;;;;;;;5.82;0.77;;;;;;;5.80;94.96;98104.81;5017842;28;20037;-78
2023/11/04 04:50:54;;;;;;;2.15;0.90;;;;;;;5.75;94.95;98099.78;5022555;28;20913;-80
2023/11/04 04:53:21;;;;;;;0.98;0.60;;;;;;;5.78;95.29;98098.84;5034159;28;20081;-77
2023/11/04 04:55:48;;;;;;;2.13;0.50;;;;;;;5.77;95.75;98100.56;5020651;28;20045;-77
2023/11/04 04:58:15;;;;;;;1.67;0.68;;;;;;;5.82;95.40;98103.03;5025969;28;20109;-82
2023/11/04 05:00:44;;;;;;;0.50;0.40;;;;;;;5.82;95.62;98090.06;5026008;28;20180;-79
2023/11/04 05:03:11;;;;;;;4.40;0.95;;;;;;;5.86;95.25;98093.41;5026847;28;20056;-79
2023/11/04 05:05:38;;;;;;;3.10;0.70;;;;;;;5.88;94.77;98102.00;5027099;28;20543;-80
2023/11/04 05:08:05;;;;;;;8.70;0.82;;;;;;;5.90;94.64;98102.81;5042192;28;20608;-78
2023/11/04 05:10:31;;;;;;;3.05;0.60;;;;;;;5.86;95.27;98089.06;5026465;28;20600;-76
2023/11/04 05:12:58;;;;;;;0.52;0.50;;;;;;;5.85;95.42;98086.53;5024285;28;20176;-76
2023/11/04 05:15:24;;;;;;;2.00;0.40;;;;;;;5.84;95.49;98090.00;5028321;28;20046;-79
2023/11/04 05:17:51;;;;;;;1.48;0.50;;;;;;;5.83;95.29;98091.78;5019524;28;20038;-77
2023/11/04 05:20:17;;;;;;;2.22;0.80;;;;;;;5.82;95.66;98097.84;5005101;28;20486;-78
2023/11/04 05:22:44;;;;;;;1.00;0.70;;;;;;;5.83;95.83;98098.69;5026898;28;20077;-83
2023/11/04 05:25:10;;;;;;;2.08;0.65;;;;;;;5.86;95.92;98094.25;5025148;28;20052;-80
2023/11/04 05:27:37;;;;;;;5.50;0.93;;;;;;;5.84;96.06;98090.88;4999455;28;20046;-82
2023/11/04 05:30:05;;;;;;;2.95;0.90;;;;;;;5.85;95.84;98092.56;5018422;28;20119;-78
2023/11/04 05:32:33;;;;;;;3.10;1.83;;;;;;;5.85;96.23;98092.56;5027835;28;20097;-81
2023/11/04 05:34:59;;;;;;;3.38;0.73;;;;;;;5.87;96.33;98088.19;5020195;28;20049;-78
2023/11/04 05:37:26;;;;;;;9.57;1.10;;;;;;;5.88;95.91;98089.88;5040220;28;20067;-77
2023/11/04 05:39:52;;;;;;;5.78;1.00;;;;;;;5.85;96.61;98091.72;5019621;28;20124;-77
2023/11/04 05:42:20;;;;;;;3.42;0.63;;;;;;;5.84;96.36;98085.69;5020400;28;20509;-83
2023/11/04 05:44:47;;;;;;;1.83;0.75;;;;;;;5.84;96.66;98084.81;5023341;28;20041;-78
2023/11/04 05:47:13;;;;;;;1.27;0.85;;;;;;;5.82;97.33;98081.44;5023545;28;20055;-78
2023/11/04 05:49:40;;;;;;;2.83;1.13;;;;;;;5.80;97.31;98084.06;5023478;28;20470;-78
2023/11/04 05:52:06;;;;;;;5.43;1.30;;;;;;;5.80;97.51;98081.47;5006299;28;20045;-78
2023/11/04 05:54:36;;;;;;;1.40;0.47;;;;;;;5.77;97.62;98082.41;5041855;28;20069;-83
2023/11/04 05:57:06;;;;;;;3.40;1.70;;;;;;;5.72;97.77;98079.13;5007677;28;20037;-86
2023/11/04 05:59:35;;;;;;;5.05;0.77;;;;;;;5.72;98.43;98080.84;5027605;28;20041;-80
2023/11/04 06:02:03;;;;;;;4.65;1.25;;;;;;;5.71;98.46;98074.81;5011353;28;20127;-78
2023/11/04 06:04:30;;;;;;;2.30;0.60;;;;;;;5.73;98.90;98073.03;5027038;28;20057;-81
2023/11/04 06:06:56;;;;;;;4.22;0.70;;;;;;;5.82;98.57;98071.06;5026252;28;20064;-78
2023/11/04 06:09:23;;;;;;;1.65;0.98;;;;;;;5.85;98.27;98076.97;5039669;28;21072;-77
2023/11/04 06:11:49;;;;;;;3.72;0.80;;;;;;;5.89;97.98;98076.00;5025917;28;20141;-77
2023/11/04 06:14:16;;;;;;;1.13;0.73;;;;;;;5.93;97.77;98069.81;5032109;28;20068;-81
2023/11/04 06:16:43;;;;;;;7.50;0.80;;;;;;;5.94;97.85;98066.31;5025316;28;20044;-77
2023/11/04 06:19:10;;;;;;;2.85;0.73;;;;;;;5.97;97.14;98071.41;5022563;28;20145;-77
2023/11/04 06:21:37;;;;;;;0.75;0.68;;;;;;;5.97;97.36;98060.16;5039931;28;20052;-77
2023/11/04 06:24:04;;;;;;;0.85;0.68;;;;;;;6.02;97.26;98065.25;5043085;28;20554;-85
2023/11/04 06:26:30;;;;;;;1.55;0.70;;;;;;;6.02;96.77;98065.25;5031674;28;20523;-80
2023/11/04 06:28:57;;;;;;;1.00;0.60;;;;;;;6.05;96.80;98057.34;5039317;28;20103;-78
2023/11/04 06:31:23;;;;;;;0.82;0.50;;;;;;;6.08;96.43;98058.09;5024793;28;20817;-78
2023/11/04 06:33:50;;;;;;;1.20;0.40;;;;;;;6.19;95.77;98051.72;5019428;28;20493;-79
2023/11/04 06:36:17;;;;;;;2.60;1.05;;;;;;;6.21;95.57;98049.94;5026567;28;20120;-78
2023/11/04 06:38:43;;;;;;;1.42;0.52;;;;;;;6.26;95.62;98046.25;5027735;28;20041;-77
2023/11/04 06:41:17;;;;;;;1.95;0.80;;;;;;;6.35;94.92;98039.91;5041895;28;20097;-78
2023/11/04 06:43:46;;;;;;;1.08;0.60;;;;;;;6.45;94.31;98049.09;5021549;28;20125;-77
2023/11/04 06:46:13;;;;;;;1.95;1.00;;;;;;;6.50;93.49;98043.72;5023756;28;20056;-78
2023/11/04 06:48:39;;;;;;;4.28;0.60;;;;;;;6.66;92.99;98041.44;5021761;28;20050;-78
2023/11/04 06:51:07;;;;;;;2.97;0.85;;;;;;;6.78;92.65;98041.03;5002999;28;20103;-80
2023/11/04 06:53:34;;;;;;;2.38;1.23;;;;;;;6.87;92.22;98038.97;5021011;28;20144;-79
2023/11/04 06:56:02;;;;;;;1.55;0.60;;;;;;;6.94;91.86;98032.66;5045843;28;20121;-77
2023/11/04 06:58:29;;;;;;;2.22;0.73;;;;;;;7.06;90.74;98034.81;5024606;28;20034;-83
2023/11/04 07:00:57;;;;;;;2.67;0.88;;;;;;;7.13;90.47;98038.03;5034307;28;20065;-79
2023/11/04 07:03:23;;;;;;;1.30;0.60;;;;;;;7.19;89.78;98032.59;5029178;28;20468;-81
2023/11/04 07:05:51;;;;;;;3.97;1.25;;;;;;;7.28;90.00;98027.06;5054806;28;20076;-79
2023/11/04 07:08:17;;;;;;;1.95;0.55;;;;;;;7.30;89.15;98029.63;5025860;28;20038;-82
2023/11/04 07:10:45;;;;;;;1.58;0.40;;;;;;;7.37;89.38;98025.03;5025459;28;20508;-79
2023/11/04 07:13:14;;;;;;;1.17;1.17;;;;;;;7.39;88.69;98016.25;5022117;28;20044;-77
2023/11/04 07:15:46;;;;;;;2.65;0.60;;;;;;;7.39;88.33;98020.59;5035424;28;20048;-77
2023/11/04 07:18:17;;;;;;;2.95;0.63;;;;;;;7.47;88.06;98017.69;5041641;28;20029;-80
2023/11/04 07:20:46;;;;;;;1.88;0.40;;;;;;;7.44;88.65;98013.47;5023546;28;20099;-80
2023/11/04 07:23:14;;;;;;;2.25;0.43;;;;;;;7.55;88.01;98019.09;5019713;28;20064;-77
2023/11/04 07:25:40;;;;;;;1.75;0.60;;;;;;;7.64;87.36;98015.28;5042513;28;20045;-81
2023/11/04 07:28:07;;;;;;;2.17;0.90;;;;;;;7.74;87.12;98013.16;5019978;28;20045;-81
2023/11/04 07:30:36;;;;;;;0.93;0.70;;;;;;;7.82;86.40;98015.47;5044021;28;20034;-77
2023/11/04 07:33:02;;;;;;;1.65;0.45;;;;;;;7.86;86.42;98019.63;5027013;28;20045;-86
2023/11/04 07:35:29;;;;;;;0.55;0.55;;;;;;;7.84;86.30;98017.09;5021669;28;20048;-80
2023/11/04 07:37:56;;;;;;;2.33;0.63;;;;;;;7.80;86.54;98019.91;5009681;28;20132;-80
2023/11/04 07:40:23;;;;;;;0.50;0.50;;;;;;;7.89;86.48;98009.94;5025007;28;20049;-78
2023/11/04 07:42:50;;;;;;;1.05;0.30;;;;;;;7.92;86.14;98001.16;5044387;28;20053;-78
2023/11/04 07:45:21;;;;;;;1.02;0.63;;;;;;;8.00;85.91;98006.06;5047157;28;20065;-82
2023/11/04 07:47:47;;;;;;;2.38;0.70;;;;;;;7.96;85.77;98002.72;5012566;28;20069;-77
2023/11/04 07:50:14;;;;;;;1.65;0.60;;;;;;;7.99;85.47;98001.75;5010419;28;20053;-79
2023/11/04 07:52:42;;;;;;;0.82;0.50;;;;;;;7.92;85.95;98001.16;5006121;28;20060;-83
2023/11/04 07:55:12;;;;;;;1.75;0.30;;;;;;;7.87;86.20;97998.72;5026499;28;20071;-82
2023/11/04 07:57:40;;;;;;;0.40;0.40;;;;;;;7.85;86.18;97995.34;5039528;28;20112;-81
2023/11/04 08:00:08;;;;;;;1.00;0.52;;;;;;;7.91;85.92;97994.25;5029385;28;20052;-77
2023/11/04 08:02:36;;;;;;;0.80;0.65;;;;;;;7.88;86.58;97995.22;5027182;28;20068;-77
2023/11/04 08:05:03;;;;;;;1.50;1.40;;;;;;;7.94;86.40;97984.56;5025070;28;20168;-77
2023/11/04 08:07:30;;;;;;;1.30;0.65;;;;;;;7.94;86.78;97989.75;5029439;28;20053;-80
2023/11/04 08:10:03;;;;;;;1.92;0.63;;;;;;;8.03;86.29;97975.53;5023526;28;20065;-81
2023/11/04 08:12:29;;;;;;;2.08;0.77;;;;;;;7.99;86.40;97971.34;5019329;28;20069;-81
2023/11/04 08:14:56;;;;;;;1.00;0.57;;;;;;;7.99;86.64;97966.16;5021114;28;20046;-79
2023/11/04 08:17:26;;;;;;;2.40;0.68;;;;;;;7.99;86.92;97968.75;5038609;28;20069;-79
2023/11/04 08:19:57;;;;;;;1.60;0.57;;;;;;;8.09;86.65;97962.22;5039620;28;20135;-79
2023/11/04 08:22:29;;;;;;;1.40;0.75;;;;;;;8.10;86.57;97963.91;5026164;28;20751;-78
2023/11/04 08:24:56;;;;;;;5.18;2.00;;;;;;;8.08;86.79;97960.53;5023885;28;20041;-78
2023/11/04 08:27:26;;;;;;;0.60;0.60;;;;;;;8.05;87.07;97958.06;5005029;28;20050;-78
2023/11/04 08:29:55;;;;;;;1.85;0.90;;;;;;;8.04;87.49;97958.13;5009686;28;20053;-80
2023/11/04 08:32:25;;;;;;;1.25;0.73;;;;;;;8.07;87.18;97965.78;5022039;28;20121;-80
2023/11/04 08:34:54;;;;;;;2.00;0.70;;;;;;;8.12;87.43;97958.63;5023081;28;20049;-78
2023/11/04 08:37:21;;;;;;;1.27;0.95;;;;;;;8.21;86.84;97960.00;5016180;28;20056;-78
2023/11/04 08:39:50;;;;;;;0.82;0.60;;;;;;;8.27;86.16;97957.16;5007819;28;20135;-80
2023/11/04 08:42:17;;;;;;;0.65;0.57;;;;;;;8.37;85.13;97968.88;5035507;28;20076;-80
2023/11/04 08:44:44;;;;;;;1.52;0.73;;;;;;;8.41;84.50;97961.78;5041920;28;20108;-79
2023/11/04 08:47:10;;;;;;;1.77;0.52;;;;;;;8.47;84.88;97961.50;5021420;28;20485;-80
2023/11/04 08:49:37;;;;;;;1.02;0.57;;;;;;;8.47;84.54;97958.91;5041023;28;20056;-82
2023/11/04 08:52:05;;;;;;;0.85;0.85;;;;;;;8.54;84.26;97956.88;5027117;28;20051;-78
2023/11/04 08:54:31;;;;;;;2.13;0.77;;;;;;;8.60;84.38;97959.22;5009764;28;20168;-77
2023/11/04 08:56:58;;;;;;;0.98;0.57;;;;;;;8.66;84.06;97958.13;5027225;28;20079;-77
2023/11/04 08:59:24;;;;;;;0.52;0.52;;;;;;;8.70;83.48;97957.06;5014467;28;20490;-77
2023/11/04 09:01:52;;;;;;;0.73;0.47;;;;;;;8.82;83.29;97964.31;5008497;28;20044;-78
2023/11/04 09:04:18;;;;;;;0.60;0.47;;;;;;;8.96;82.88;97961.09;5046358;28;20045;-78
2023/11/04 09:06:45;;;;;;;0.50;0.50;;;;;;;9.06;81.88;97964.97;5036607;28;20073;-77
2023/11/04 09:09:14;;;;;;;1.88;0.70;;;;;;;9.25;81.48;97972.78;5044747;28;20048;-81
2023/11/04 09:11:43;;;;;;;2.13;0.63;;;;;;;9.37;80.22;97971.41;5008014;28;20057;-80
2023/11/04 09:14:11;;;;;;;0.77;0.30;;;;;;;9.53;79.76;97968.88;5040788;28;20128;-78
2023/11/04 09:16:39;;;;;;;0.40;0.40;;;;;;;9.52;79.32;97958.53;5022657;28;20054;-77
2023/11/04 09:19:06;;;;;;;2.50;1.65;;;;;;;9.59;79.04;97952.06;5018522;28;20045;-78
2023/11/04 09:21:32;;;;;;;1.95;0.73;;;;;;;9.56;79.43;97952.22;5021523;28;20034;-81
2023/11/04 09:23:59;;;;;;;0.95;0.60;;;;;;;9.48;80.00;97955.22;5021919;28;20124;-78
2023/11/04 09:26:25;;;;;;;1.98;0.65;;;;;;;9.50;79.30;97955.13;5034195;28;20049;-77
2023/11/04 09:28:53;;;;;;;2.40;0.75;;;;;;;9.39;80.19;97950.44;5028647;28;20041;-79
2023/11/04 09:31:20;;;;;;;1.70;0.50;;;;;;;9.39;79.74;97950.44;5042595;28;20037;-77
2023/11/04 09:33:52;;;;;;;1.38;0.70;;;;;;;9.42;80.04;97945.03;5009979;28;20049;-78
2023/11/04 09:36:19;;;;;;;0.75;0.60;;;;;;;9.56;79.79;97947.84;5023499;28;20069;-77
2023/11/04 09:38:46;;;;;;;2.15;0.50;;;;;;;9.54;79.52;97946.22;5052264;28;20045;-77
2023/11/04 09:41:12;;;;;;;1.05;0.93;;;;;;;9.60;79.33;97928.47;5026452;28;20049;-86
2023/11/04 09:43:39;;;;;;;0.70;0.63;;;;;;;9.63;78.69;97927.50;5030261;28;20064;-81
2023/11/04 09:46:07;;;;;;;0.40;0.40;;;;;;;9.65;78.60;97923.03;5023270;28;20205;-81
2023/11/04 09:48:37;;;;;;;0.85;0.77;;;;;;;9.68;78.56;97922.06;5038178;28;20648;-79
2023/11/04 09:51:11;;;;;;;1.52;0.57;;;;;;;9.68;78.08;97907.22;5038292;28;20083;-80
2023/11/04 09:53:38;;;;;;;;;;;;;;;9.67;77.82;97896.84;5024400;28;20151;-80
2023/11/04 09:56:06;;;;;;;0.68;0.40;;;;;;;9.62;77.86;97880.56;5024458;28;19921;-78
2023/11/04 09:58:34;;;;;;;0.80;0.68;;;;;;;9.70;77.82;97889.72;5019679;28;20153;-81
2023/11/04 10:01:01;;;;;;;3.63;0.70;;;;;;;9.70;77.64;97884.47;5023929;28;20049;-84
2023/11/04 10:03:27;;;;;;;0.40;0.40;;;;;;;9.79;77.57;97895.38;5012149;28;20089;-81
2023/11/04 10:05:54;;;;;;;0.60;0.60;;;;;;;9.94;77.08;97884.16;5047475;28;20469;-78
2023/11/04 10:08:21;;;;;;;3.42;0.50;;;;;;;10.06;75.36;97891.41;5024180;28;20448;-79
2023/11/04 10:10:48;;;;;;;0.75;0.40;;;;;;;10.28;74.66;97892.88;5023922;28;20124;-79
2023/11/04 10:13:16;;;;;;;1.08;0.85;;;;;;;10.40;74.47;97909.72;5004064;28;20049;-82
2023/11/04 10:15:42;;;;;;;0.57;0.57;;;;;;;10.35;73.96;97901.25;5023698;28;20045;-77
2023/11/04 10:18:09;;;;;;;1.17;0.43;;;;;;;10.42;74.38;97900.88;5008552;28;20051;-79
2023/11/04 10:20:36;;;;;;;1.02;0.60;;;;;;;10.17;75.16;97897.81;5014090;28;20054;-80
2023/11/04 10:23:02;;;;;;;0.65;0.50;;;;;;;10.08;75.73;97900.00;5026334;28;20136;-82
2023/11/04 10:25:30;;;;;;;0.40;0.40;;;;;;;10.16;75.50;97891.75;5035676;28;20049;-78
2023/11/04 10:27:56;;;;;;;0.88;0.30;;;;;;;10.17;75.20;97896.06;5027638;28;20057;-80
2023/11/04 10:30:23;;;;;;;0.73;0.47;;;;;;;10.33;73.86;97888.25;5024479;28;20037;-77
2023/11/04 10:32:53;;;;;;;1.27;0.40;;;;;;;10.47;73.35;97884.97;5023919;28;20096;-78
2023/11/04 10:35:22;;;;;;;1.08;0.55;;;;;;;10.38;73.86;97888.06;5031894;28;20520;-78
2023/11/04 10:37:49;;;;;;;0.95;0.32;;;;;;;10.22;74.53;97880.97;5028884;28;20046;-77
2023/11/04 10:40:16;;;;;;;1.30;0.70;;;;;;;10.21;75.34;97875.84;5041704;28;20473;-81
2023/11/04 10:42:51;;;;;;;2.55;1.23;;;;;;;10.21;75.56;97876.66;5046729;28;20089;-78
2023/11/04 10:45:30;;;;;;;1.38;0.45;;;;;;;10.11;76.00;97870.22;5043155;28;20053;-78
2023/11/04 10:48:01;;;;;;;1.92;0.32;;;;;;;10.22;75.64;97872.28;5028193;28;20053;-78
2023/11/04 10:50:34;;;;;;;0.52;0.50;;;;;;;10.22;75.41;97846.13;5031921;28;20045;-82
2023/11/04 10:53:44;;;;;;;1.40;0.30;;;;;;;10.29;74.77;97851.91;5048050;28;20045;-78
2023/11/04 10:56:22;;;;;;;3.08;0.52;;;;;;;10.40;74.68;97854.81;5037924;28;20096;-81
2023/11/04 10:59:16;;;;;;;1.60;0.50;;;;;;;10.73;73.44;97848.72;5038162;28;20478;-81
2023/11/04 11:01:43;;;;;;;1.70;0.40;;;;;;;10.74;72.85;97834.69;5021385;28;20038;-78
2023/11/04 11:04:12;;;;;;;0.38;0.30;;;;;;;11.03;72.37;97821.75;5039225;28;20049;-78
2023/11/04 11:06:40;;;;;;;0.50;0.50;;;;;;;10.92;70.77;97817.13;5037551;28;20105;-82
2023/11/04 11:09:09;;;;;;;4.28;1.17;;;;;;;10.76;71.72;97812.72;5023071;28;20080;-80
2023/11/04 11:12:11;;;;;;;1.55;0.30;;;;;;;10.64;72.41;97818.66;5042961;28;20576;-81
2023/11/04 11:14:41;;;;;;;0.25;0.25;;;;;;;10.81;71.64;97811.63;5024836;28;20049;-79
2023/11/04 11:17:11;;;;;;;1.63;0.50;;;;;;;10.76;71.85;97817.97;5031989;28;20116;-80
2023/11/04 11:19:51;;;;;;;0.20;0.20;;;;;;;10.62;71.59;97817.88;5041973;28;20045;-77
2023/11/04 11:22:23;;;;;;;0.30;0.30;;;;;;;10.77;71.79;97803.13;5043218;28;20082;-81
2023/11/04 11:24:51;;;;;;;1.20;0.40;;;;;;;10.85;71.26;97808.75;5043338;28;20508;-79
2023/11/04 11:27:19;;;;;;;1.55;0.43;;;;;;;10.96;70.81;97802.09;5045928;28;20049;-80
2023/11/04 11:29:47;;;;;;;7.50;0.57;;;;;;;10.72;72.04;97789.44;5021643;28;20120;-79
2023/11/04 11:32:17;;;;;;;0.10;0.10;;;;;;;10.82;71.86;97788.00;5021649;28;20038;-78
2023/11/04 11:34:55;;;;;;;0.68;0.40;;;;;;;10.71;72.10;97775.50;5029054;28;20511;-81
2023/11/04 11:37:24;;;;;;;1.13;0.13;;;;;;;10.59;72.42;97777.03;5022227;28;20037;-79
2023/11/04 11:39:51;;;;;;;1.10;0.30;;;;;;;10.53;72.78;97761.72;5043744;28;20103;-78
2023/11/04 11:42:25;;;;;;;1.85;0.30;;;;;;;10.57;72.77;97764.97;5025402;28;20051;-81
2023/11/04 11:44:54;;;;;;;0.30;0.30;;;;;;;10.68;72.21;97756.53;5026771;28;20080;-79